sensor_id;sensor_type;location;lat;lon;timestamp;pressure;altitude;pressure_sealevel;temperature;humidity
44926;BME280;30662;51.210;7.656;2023-07-02T00:01:45;152435.97;;;14.57;100.00
44926;BME280;30662;51.210;7.656;2023-07-02T00:04:12;152458.81;;;14.66;100.00
44926;BME280;30662;51.210;7.656;2023-07-02T00:06:47;152423.28;;;14.52;100.00
44926;BME280;30662;51.210;7.656;2023-07-02T00:09:14;152429.59;;;14.54;100.00
44926;BME280;30662;51.210;7.656;2023-07-02T00:11:45;152399.13;;;14.42;100.00
44926;BME280;30662;51.210;7.656;2023-07-02T00:14:12;152408.03;;;14.46;100.00
44926;BME280;30662;51.210;7.656;2023-07-02T00:16:39;152427.06;;;14.53;100.00
44926;BME280;30662;51.210;7.656;2023-07-02T00:19:06;152399.13;;;14.42;100.00
44926;BME280;30662;51.210;7.656;2023-07-02T00:21:32;152424.53;;;14.52;100.00
44926;BME280;30662;51.210;7.656;2023-07-02T00:23:59;152452.50;;;14.64;100.00
44926;BME280;30662;51.210;7.656;2023-07-02T00:26:27;152465.16;;;14.69;100.00
44926;BME280;30662;51.210;7.656;2023-07-02T00:28:54;152484.19;;;14.76;100.00
44926;BME280;30662;51.210;7.656;2023-07-02T00:31:20;152457.56;;;14.66;100.00
44926;BME280;30662;51.210;7.656;2023-07-02T00:33:46;152480.38;;;14.75;100.00
44926;BME280;30662;51.210;7.656;2023-07-02T00:36:13;152456.28;;;14.65;100.00
44926;BME280;30662;51.210;7.656;2023-07-02T00:38:44;152428.34;;;14.54;100.00
44926;BME280;30662;51.210;7.656;2023-07-02T00:41:10;152433.44;;;14.56;100.00
44926;BME280;30662;51.210;7.656;2023-07-02T00:43:37;152453.75;;;14.64;100.00
44926;BME280;30662;51.210;7.656;2023-07-02T00:46:19;152460.09;;;14.67;100.00
44926;BME280;30662;51.210;7.656;2023-07-02T00:48:49;152451.22;;;14.63;100.00
44926;BME280;30662;51.210;7.656;2023-07-02T00:51:19;152443.56;;;14.60;100.00
44926;BME280;30662;51.210;7.656;2023-07-02T00:53:47;152438.50;;;14.58;100.00
44926;BME280;30662;51.210;7.656;2023-07-02T00:56:14;152444.84;;;14.60;100.00
44926;BME280;30662;51.210;7.656;2023-07-02T00:58:44;152439.78;;;14.58;100.00
44926;BME280;30662;51.210;7.656;2023-07-02T01:01:18;152468.94;;;14.70;100.00
44926;BME280;30662;51.210;7.656;2023-07-02T01:03:58;152442.31;;;14.59;100.00
44926;BME280;30662;51.210;7.656;2023-07-02T01:06:35;152452.50;;;14.64;100.00
44926;BME280;30662;51.210;7.656;2023-07-02T01:09:04;152453.75;;;14.64;100.00
44926;BME280;30662;51.210;7.656;2023-07-02T01:14:09;152411.81;;;14.47;100.00
44926;BME280;30662;51.210;7.656;2023-07-02T01:16:37;152395.28;;;14.41;100.00
44926;BME280;30662;51.210;7.656;2023-07-02T01:19:11;152406.72;;;14.45;100.00
44926;BME280;30662;51.210;7.656;2023-07-02T01:21:39;152410.56;;;14.47;100.00
44926;BME280;30662;51.210;7.656;2023-07-02T01:24:05;152373.69;;;14.32;100.00
44926;BME280;30662;51.210;7.656;2023-07-02T01:26:32;152358.47;;;14.26;100.00
44926;BME280;30662;51.210;7.656;2023-07-02T01:29:19;152367.38;;;14.29;100.00
44926;BME280;30662;51.210;7.656;2023-07-02T01:31:46;152369.91;;;14.30;100.00
44926;BME280;30662;51.210;7.656;2023-07-02T01:34:13;152363.56;;;14.28;100.00
44926;BME280;30662;51.210;7.656;2023-07-02T01:36:39;152364.84;;;14.28;100.00
44926;BME280;30662;51.210;7.656;2023-07-02T01:39:06;152369.91;;;14.30;100.00
44926;BME280;30662;51.210;7.656;2023-07-02T01:41:37;152335.63;;;14.17;100.00
44926;BME280;30662;51.210;7.656;2023-07-02T01:44:07;152329.31;;;14.14;100.00
44926;BME280;30662;51.210;7.656;2023-07-02T01:46:32;152348.34;;;14.22;100.00
44926;BME280;30662;51.210;7.656;2023-07-02T01:48:58;152348.34;;;14.22;100.00
44926;BME280;30662;51.210;7.656;2023-07-02T01:51:25;152338.16;;;14.18;100.00
44926;BME280;30662;51.210;7.656;2023-07-02T01:53:50;152358.47;;;14.26;100.00
44926;BME280;30662;51.210;7.656;2023-07-02T01:56:16;152307.75;;;14.05;100.00
44926;BME280;30662;51.210;7.656;2023-07-02T01:58:42;152306.41;;;14.05;100.00
44926;BME280;30662;51.210;7.656;2023-07-02T02:01:08;152334.38;;;14.16;100.00
44926;BME280;30662;51.210;7.656;2023-07-02T02:03:34;152338.16;;;14.18;100.00
44926;BME280;30662;51.210;7.656;2023-07-02T02:06:00;152338.16;;;14.18;100.00
44926;BME280;30662;51.210;7.656;2023-07-02T02:08:26;152350.88;;;14.23;100.00
44926;BME280;30662;51.210;7.656;2023-07-02T02:10:52;152324.19;;;14.12;100.00
44926;BME280;30662;51.210;7.656;2023-07-02T02:13:18;152341.97;;;14.19;100.00
44926;BME280;30662;51.210;7.656;2023-07-02T02:15:43;152339.44;;;14.18;100.00
44926;BME280;30662;51.210;7.656;2023-07-02T02:18:09;152340.69;;;14.19;100.00
44926;BME280;30662;51.210;7.656;2023-07-02T02:20:45;152330.56;;;14.15;100.00
44926;BME280;30662;51.210;7.656;2023-07-02T02:23:22;152302.63;;;14.03;100.00
44926;BME280;30662;51.210;7.656;2023-07-02T02:25:47;152300.09;;;14.02;100.00
44926;BME280;30662;51.210;7.656;2023-07-02T02:28:13;152288.69;;;13.98;100.00
44926;BME280;30662;51.210;7.656;2023-07-02T02:30:39;152287.38;;;13.97;100.00
44926;BME280;30662;51.210;7.656;2023-07-02T02:33:05;152291.22;;;13.99;100.00
44926;BME280;30662;51.210;7.656;2023-07-02T02:35:31;152241.72;;;13.79;100.00
44926;BME280;30662;51.210;7.656;2023-07-02T02:37:57;152241.72;;;13.79;100.00
44926;BME280;30662;51.210;7.656;2023-07-02T02:40:23;152262.03;;;13.87;100.00
44926;BME280;30662;51.210;7.656;2023-07-02T02:42:49;152267.09;;;13.89;100.00
44926;BME280;30662;51.210;7.656;2023-07-02T02:45:15;152267.09;;;13.89;100.00
44926;BME280;30662;51.210;7.656;2023-07-02T02:47:41;152284.84;;;13.96;100.00
44926;BME280;30662;51.210;7.656;2023-07-02T02:50:07;152240.47;;;13.78;100.00
44926;BME280;30662;51.210;7.656;2023-07-02T02:52:35;152206.22;;;13.65;100.00
44926;BME280;30662;51.210;7.656;2023-07-02T02:55:01;152244.25;;;13.80;100.00
44926;BME280;30662;51.210;7.656;2023-07-02T02:57:26;152277.25;;;13.93;100.00
44926;BME280;30662;51.210;7.656;2023-07-02T02:59:52;152276.00;;;13.93;100.00
44926;BME280;30662;51.210;7.656;2023-07-02T03:02:18;152298.81;;;14.02;100.00
44926;BME280;30662;51.210;7.656;2023-07-02T03:04:44;152288.69;;;13.98;100.00
44926;BME280;30662;51.210;7.656;2023-07-02T03:07:11;152273.47;;;13.92;100.00
44926;BME280;30662;51.210;7.656;2023-07-02T03:09:37;152249.31;;;13.82;100.00
44926;BME280;30662;51.210;7.656;2023-07-02T03:12:03;152248.06;;;13.82;100.00
44926;BME280;30662;51.210;7.656;2023-07-02T03:14:29;152284.84;;;13.96;100.00
44926;BME280;30662;51.210;7.656;2023-07-02T03:16:55;152272.19;;;13.91;100.00
44926;BME280;30662;51.210;7.656;2023-07-02T03:19:21;152251.84;;;13.83;100.00
44926;BME280;30662;51.210;7.656;2023-07-02T03:21:47;152256.97;;;13.85;100.00
44926;BME280;30662;51.210;7.656;2023-07-02T03:24:13;152254.44;;;13.84;100.00
44926;BME280;30662;51.210;7.656;2023-07-02T03:26:40;152274.72;;;13.92;100.00
44926;BME280;30662;51.210;7.656;2023-07-02T03:29:06;152230.28;;;13.74;100.00
44926;BME280;30662;51.210;7.656;2023-07-02T03:31:32;152230.28;;;13.74;100.00
44926;BME280;30662;51.210;7.656;2023-07-02T03:34:01;152225.22;;;13.72;100.00
44926;BME280;30662;51.210;7.656;2023-07-02T03:36:27;152249.31;;;13.82;100.00
44926;BME280;30662;51.210;7.656;2023-07-02T03:38:53;152237.94;;;13.77;100.00
44926;BME280;30662;51.210;7.656;2023-07-02T03:41:19;152259.50;;;13.86;100.00
44926;BME280;30662;51.210;7.656;2023-07-02T03:43:45;152267.09;;;13.89;100.00
44926;BME280;30662;51.210;7.656;2023-07-02T03:46:11;152215.06;;;13.68;100.00
44926;BME280;30662;51.210;7.656;2023-07-02T03:48:36;152212.53;;;13.67;100.00
44926;BME280;30662;51.210;7.656;2023-07-02T03:51:02;152245.53;;;13.80;100.00
44926;BME280;30662;51.210;7.656;2023-07-02T03:53:29;152220.19;;;13.70;100.00
44926;BME280;30662;51.210;7.656;2023-07-02T03:55:54;152227.75;;;13.73;100.00
44926;BME280;30662;51.210;7.656;2023-07-02T03:58:20;152218.91;;;13.70;100.00
44926;BME280;30662;51.210;7.656;2023-07-02T04:00:46;152208.75;;;13.66;100.00
44926;BME280;30662;51.210;7.656;2023-07-02T04:03:16;152232.81;;;13.75;100.00
44926;BME280;30662;51.210;7.656;2023-07-02T04:05:43;152225.22;;;13.72;100.00
44926;BME280;30662;51.210;7.656;2023-07-02T04:08:08;152241.72;;;13.79;100.00
44926;BME280;30662;51.210;7.656;2023-07-02T04:10:34;152248.06;;;13.82;100.00
44926;BME280;30662;51.210;7.656;2023-07-02T04:13:00;152235.41;;;13.76;100.00
44926;BME280;30662;51.210;7.656;2023-07-02T04:15:26;152229.03;;;13.74;100.00
44926;BME280;30662;51.210;7.656;2023-07-02T04:17:52;152230.28;;;13.74;100.00
44926;BME280;30662;51.210;7.656;2023-07-02T04:20:19;152222.72;;;13.71;100.00
44926;BME280;30662;51.210;7.656;2023-07-02T04:22:46;152218.91;;;13.70;100.00
44926;BME280;30662;51.210;7.656;2023-07-02T04:25:13;152211.28;;;13.67;100.00
44926;BME280;30662;51.210;7.656;2023-07-02T04:28:01;152206.22;;;13.65;100.00
44926;BME280;30662;51.210;7.656;2023-07-02T04:30:27;152160.50;;;13.46;100.00
44926;BME280;30662;51.210;7.656;2023-07-02T04:32:53;152154.19;;;13.44;100.00
44926;BME280;30662;51.210;7.656;2023-07-02T04:35:19;152199.88;;;13.62;100.00
44926;BME280;30662;51.210;7.656;2023-07-02T04:37:45;152197.31;;;13.61;100.00
44926;BME280;30662;51.210;7.656;2023-07-02T04:40:11;152210.00;;;13.66;100.00
44926;BME280;30662;51.210;7.656;2023-07-02T04:42:41;152156.72;;;13.45;100.00
44926;BME280;30662;51.210;7.656;2023-07-02T04:45:13;152159.25;;;13.46;100.00
44926;BME280;30662;51.210;7.656;2023-07-02T04:47:43;152188.44;;;13.58;100.00
44926;BME280;30662;51.210;7.656;2023-07-02T04:50:10;152201.16;;;13.63;100.00
44926;BME280;30662;51.210;7.656;2023-07-02T04:52:38;152203.69;;;13.64;100.00
44926;BME280;30662;51.210;7.656;2023-07-02T04:55:05;152198.63;;;13.62;100.00
44926;BME280;30662;51.210;7.656;2023-07-02T04:57:31;152225.22;;;13.72;100.00
44926;BME280;30662;51.210;7.656;2023-07-02T04:59:57;152221.44;;;13.71;100.00
44926;BME280;30662;51.210;7.656;2023-07-02T05:02:23;152199.88;;;13.62;100.00
44926;BME280;30662;51.210;7.656;2023-07-02T05:04:49;152188.44;;;13.58;100.00
44926;BME280;30662;51.210;7.656;2023-07-02T05:07:18;152182.13;;;13.55;100.00
44926;BME280;30662;51.210;7.656;2023-07-02T05:09:43;152135.16;;;13.36;100.00
44926;BME280;30662;51.210;7.656;2023-07-02T05:12:09;152173.22;;;13.51;100.00
44926;BME280;30662;51.210;7.656;2023-07-02T05:14:35;152220.19;;;13.70;100.00
44926;BME280;30662;51.210;7.656;2023-07-02T05:17:01;152218.91;;;13.70;100.00
44926;BME280;30662;51.210;7.656;2023-07-02T05:19:27;152202.41;;;13.63;100.00
44926;BME280;30662;51.210;7.656;2023-07-02T05:21:53;152179.53;;;13.54;100.00
44926;BME280;30662;51.210;7.656;2023-07-02T05:24:19;152175.75;;;13.52;100.00
44926;BME280;30662;51.210;7.656;2023-07-02T05:26:45;152190.97;;;13.59;100.00
44926;BME280;30662;51.210;7.656;2023-07-02T05:29:12;152203.69;;;13.64;100.00
44926;BME280;30662;51.210;7.656;2023-07-02T05:31:39;152206.22;;;13.65;100.00
44926;BME280;30662;51.210;7.656;2023-07-02T05:34:05;152215.06;;;13.68;100.00
44926;BME280;30662;51.210;7.656;2023-07-02T05:36:31;152239.19;;;13.78;100.00
44926;BME280;30662;51.210;7.656;2023-07-02T05:38:57;152241.72;;;13.79;100.00
44926;BME280;30662;51.210;7.656;2023-07-02T05:41:23;152253.16;;;13.84;100.00
44926;BME280;30662;51.210;7.656;2023-07-02T05:43:49;152229.03;;;13.74;100.00
44926;BME280;30662;51.210;7.656;2023-07-02T05:46:15;152259.50;;;13.86;100.00
44926;BME280;30662;51.210;7.656;2023-07-02T05:48:41;152251.84;;;13.83;100.00
44926;BME280;30662;51.210;7.656;2023-07-02T05:51:07;152260.75;;;13.87;100.00
44926;BME280;30662;51.210;7.656;2023-07-02T05:53:34;152267.09;;;13.89;100.00
44926;BME280;30662;51.210;7.656;2023-07-02T05:56:00;152278.53;;;13.94;100.00
44926;BME280;30662;51.210;7.656;2023-07-02T05:58:26;152264.56;;;13.88;100.00
44926;BME280;30662;51.210;7.656;2023-07-02T06:01:04;152281.06;;;13.95;100.00
44926;BME280;30662;51.210;7.656;2023-07-02T06:03:32;152284.84;;;13.96;100.00
44926;BME280;30662;51.210;7.656;2023-07-02T06:05:58;152295.03;;;14.00;100.00
44926;BME280;30662;51.210;7.656;2023-07-02T06:08:24;152305.16;;;14.04;100.00
44926;BME280;30662;51.210;7.656;2023-07-02T06:10:50;152305.16;;;14.04;100.00
44926;BME280;30662;51.210;7.656;2023-07-02T06:13:16;152317.84;;;14.10;100.00
44926;BME280;30662;51.210;7.656;2023-07-02T06:15:42;152312.78;;;14.07;100.00
44926;BME280;30662;51.210;7.656;2023-07-02T06:18:08;152277.25;;;13.93;100.00
44926;BME280;30662;51.210;7.656;2023-07-02T06:20:34;152289.97;;;13.98;100.00
44926;BME280;30662;51.210;7.656;2023-07-02T06:23:00;152288.69;;;13.98;100.00
44926;BME280;30662;51.210;7.656;2023-07-02T06:25:26;152328.03;;;14.14;100.00
44926;BME280;30662;51.210;7.656;2023-07-02T06:27:52;152340.69;;;14.19;100.00
44926;BME280;30662;51.210;7.656;2023-07-02T06:30:29;152357.19;;;14.25;100.00
44926;BME280;30662;51.210;7.656;2023-07-02T06:32:55;152353.41;;;14.24;100.00
44926;BME280;30662;51.210;7.656;2023-07-02T06:35:21;152401.66;;;14.43;100.00
44926;BME280;30662;51.210;7.656;2023-07-02T06:37:47;152369.91;;;14.30;100.00
44926;BME280;30662;51.210;7.656;2023-07-02T06:40:14;152378.81;;;14.34;100.00
44926;BME280;30662;51.210;7.656;2023-07-02T06:42:40;152438.50;;;14.58;100.00
44926;BME280;30662;51.210;7.656;2023-07-02T06:45:07;152434.72;;;14.56;100.00
44926;BME280;30662;51.210;7.656;2023-07-02T06:47:33;152456.28;;;14.65;100.00
44926;BME280;30662;51.210;7.656;2023-07-02T06:49:59;152402.91;;;14.44;100.00
44926;BME280;30662;51.210;7.656;2023-07-02T06:52:25;152411.81;;;14.47;100.00
44926;BME280;30662;51.210;7.656;2023-07-02T06:54:51;152391.47;;;14.39;100.00
44926;BME280;30662;51.210;7.656;2023-07-02T06:57:17;152432.13;;;14.55;100.00
44926;BME280;30662;51.210;7.656;2023-07-02T06:59:43;152381.34;;;14.35;100.00
44926;BME280;30662;51.210;7.656;2023-07-02T07:02:09;152380.06;;;14.34;100.00
44926;BME280;30662;51.210;7.656;2023-07-02T07:04:35;152405.44;;;14.45;100.00
44926;BME280;30662;51.210;7.656;2023-07-02T07:07:01;152418.19;;;14.50;100.00
44926;BME280;30662;51.210;7.656;2023-07-02T07:09:31;152449.91;;;14.62;100.00
44926;BME280;30662;51.210;7.656;2023-07-02T07:11:57;152467.69;;;14.70;100.00
44926;BME280;30662;51.210;7.656;2023-07-02T07:14:23;152538.78;;;14.98;100.00
44926;BME280;30662;51.210;7.656;2023-07-02T07:16:49;152531.19;;;14.95;100.00
44926;BME280;30662;51.210;7.656;2023-07-02T07:19:16;152535.00;;;14.97;100.00
44926;BME280;30662;51.210;7.656;2023-07-02T07:21:42;152495.63;;;14.81;100.00
44926;BME280;30662;51.210;7.656;2023-07-02T07:24:09;152496.91;;;14.81;100.00
44926;BME280;30662;51.210;7.656;2023-07-02T07:26:35;152555.31;;;15.05;100.00
44926;BME280;30662;51.210;7.656;2023-07-02T07:29:01;152537.53;;;14.98;100.00
44926;BME280;30662;51.210;7.656;2023-07-02T07:31:27;152536.25;;;14.97;100.00
44926;BME280;30662;51.210;7.656;2023-07-02T07:33:52;152587.06;;;15.17;100.00
44926;BME280;30662;51.210;7.656;2023-07-02T07:36:19;152540.06;;;14.99;100.00
44926;BME280;30662;51.210;7.656;2023-07-02T07:38:45;152556.56;;;15.05;100.00
44926;BME280;30662;51.210;7.656;2023-07-02T07:41:11;152550.25;;;15.03;100.00
44926;BME280;30662;51.210;7.656;2023-07-02T07:43:37;152585.78;;;15.17;100.00
44926;BME280;30662;51.210;7.656;2023-07-02T07:46:02;152569.28;;;15.10;100.00
44926;BME280;30662;51.210;7.656;2023-07-02T07:48:28;152554.03;;;15.04;100.00
44926;BME280;30662;51.210;7.656;2023-07-02T07:50:54;152576.88;;;15.13;100.00
44926;BME280;30662;51.210;7.656;2023-07-02T07:53:20;152575.63;;;15.13;100.00
44926;BME280;30662;51.210;7.656;2023-07-02T07:55:46;152608.66;;;15.26;100.00
44926;BME280;30662;51.210;7.656;2023-07-02T07:58:12;152639.16;;;15.38;100.00
44926;BME280;30662;51.210;7.656;2023-07-02T08:00:38;152623.91;;;15.32;100.00
44926;BME280;30662;51.210;7.656;2023-07-02T08:03:04;152639.16;;;15.38;100.00
44926;BME280;30662;51.210;7.656;2023-07-02T08:05:30;152609.91;;;15.27;100.00
44926;BME280;30662;51.210;7.656;2023-07-02T08:07:56;152669.66;;;15.51;100.00
44926;BME280;30662;51.210;7.656;2023-07-02T08:10:23;152693.75;;;15.60;100.00
44926;BME280;30662;51.210;7.656;2023-07-02T08:12:51;152738.25;;;15.78;100.00
44926;BME280;30662;51.210;7.656;2023-07-02T08:15:18;152674.72;;;15.53;100.00
44926;BME280;30662;51.210;7.656;2023-07-02T08:17:44;152668.38;;;15.50;100.00
44926;BME280;30662;51.210;7.656;2023-07-02T08:20:11;152655.66;;;15.45;99.84
44926;BME280;30662;51.210;7.656;2023-07-02T08:22:38;152635.34;;;15.37;98.83
44926;BME280;30662;51.210;7.656;2023-07-02T08:25:05;152659.47;;;15.47;98.74
44926;BME280;30662;51.210;7.656;2023-07-02T08:27:31;152728.13;;;15.74;99.13
44926;BME280;30662;51.210;7.656;2023-07-02T08:29:57;152744.66;;;15.81;97.70
44926;BME280;30662;51.210;7.656;2023-07-02T08:32:23;152720.47;;;15.71;97.14
44926;BME280;30662;51.210;7.656;2023-07-02T08:34:50;152738.25;;;15.78;97.01
44926;BME280;30662;51.210;7.656;2023-07-02T08:37:20;152745.91;;;15.81;93.28
44926;BME280;30662;51.210;7.656;2023-07-02T08:39:48;152743.38;;;15.80;93.84
44926;BME280;30662;51.210;7.656;2023-07-02T08:42:16;152805.63;;;16.05;94.67
44926;BME280;30662;51.210;7.656;2023-07-02T08:44:45;152869.19;;;16.31;93.82
44926;BME280;30662;51.210;7.656;2023-07-02T08:47:12;152886.97;;;16.38;92.88
44926;BME280;30662;51.210;7.656;2023-07-02T08:49:39;152923.84;;;16.52;90.89
44926;BME280;30662;51.210;7.656;2023-07-02T08:52:06;152861.53;;;16.27;91.40
44926;BME280;30662;51.210;7.656;2023-07-02T08:54:31;152750.97;;;15.83;92.57
44926;BME280;30662;51.210;7.656;2023-07-02T08:56:57;152775.09;;;15.93;93.65
44926;BME280;30662;51.210;7.656;2023-07-02T08:59:23;152781.50;;;15.95;94.06
44926;BME280;30662;51.210;7.656;2023-07-02T09:01:53;152782.75;;;15.96;94.77
44926;BME280;30662;51.210;7.656;2023-07-02T09:04:25;152777.69;;;15.94;94.22
44926;BME280;30662;51.210;7.656;2023-07-02T09:07:08;152737.00;;;15.78;93.79
44926;BME280;30662;51.210;7.656;2023-07-02T09:09:48;152767.50;;;15.90;94.08
44926;BME280;30662;51.210;7.656;2023-07-02T09:14:58;152878.06;;;16.34;90.35
44926;BME280;30662;51.210;7.656;2023-07-02T09:17:35;152794.16;;;16.00;89.79
44926;BME280;30662;51.210;7.656;2023-07-02T09:20:03;152828.47;;;16.14;88.41
44926;BME280;30662;51.210;7.656;2023-07-02T09:22:31;152838.66;;;16.18;89.38
44926;BME280;30662;51.210;7.656;2023-07-02T09:24:58;152850.13;;;16.23;88.85
44926;BME280;30662;51.210;7.656;2023-07-02T09:27:41;152799.28;;;16.03;90.26
44926;BME280;30662;51.210;7.656;2023-07-02T09:30:09;152709.06;;;15.66;91.37
44926;BME280;30662;51.210;7.656;2023-07-02T09:32:35;152658.19;;;15.46;94.74
44926;BME280;30662;51.210;7.656;2023-07-02T09:35:02;152730.66;;;15.75;95.47
44926;BME280;30662;51.210;7.656;2023-07-02T09:37:28;152730.66;;;15.75;94.43
44926;BME280;30662;51.210;7.656;2023-07-02T09:39:55;152780.22;;;15.95;95.65
44926;BME280;30662;51.210;7.656;2023-07-02T09:42:22;152824.69;;;16.13;95.73
44926;BME280;30662;51.210;7.656;2023-07-02T09:44:51;152838.66;;;16.18;95.47
44926;BME280;30662;51.210;7.656;2023-07-02T09:47:18;152814.53;;;16.09;96.34
44926;BME280;30662;51.210;7.656;2023-07-02T09:49:55;152806.88;;;16.06;97.09
44926;BME280;30662;51.210;7.656;2023-07-02T09:52:23;152792.91;;;16.00;99.20
44926;BME280;30662;51.210;7.656;2023-07-02T09:54:50;152782.75;;;15.96;99.98
44926;BME280;30662;51.210;7.656;2023-07-02T09:57:16;152803.09;;;16.04;99.89
44926;BME280;30662;51.210;7.656;2023-07-02T09:59:42;152809.44;;;16.07;99.23
44926;BME280;30662;51.210;7.656;2023-07-02T10:02:12;152809.44;;;16.07;98.78
44926;BME280;30662;51.210;7.656;2023-07-02T10:04:42;152886.97;;;16.38;96.64
44926;BME280;30662;51.210;7.656;2023-07-02T10:07:10;152900.94;;;16.43;94.59
44926;BME280;30662;51.210;7.656;2023-07-02T10:09:37;152928.91;;;16.54;92.70
44926;BME280;30662;51.210;7.656;2023-07-02T10:12:17;152870.47;;;16.31;92.61
44926;BME280;30662;51.210;7.656;2023-07-02T10:14:43;152917.47;;;16.50;93.33
44926;BME280;30662;51.210;7.656;2023-07-02T10:17:10;152954.31;;;16.65;91.00
44926;BME280;30662;51.210;7.656;2023-07-02T10:19:36;152935.25;;;16.57;91.16
44926;BME280;30662;51.210;7.656;2023-07-02T10:22:03;152976.03;;;16.73;91.63
44926;BME280;30662;51.210;7.656;2023-07-02T10:24:30;152976.03;;;16.73;89.73
44926;BME280;30662;51.210;7.656;2023-07-02T10:27:00;152876.78;;;16.34;91.05
44926;BME280;30662;51.210;7.656;2023-07-02T10:29:28;152848.84;;;16.22;93.01
44926;BME280;30662;51.210;7.656;2023-07-02T10:31:55;152866.66;;;16.30;93.17
44926;BME280;30662;51.210;7.656;2023-07-02T10:34:32;152828.47;;;16.14;96.10
44926;BME280;30662;51.210;7.656;2023-07-02T10:37:00;152764.97;;;15.89;97.35
44926;BME280;30662;51.210;7.656;2023-07-02T10:39:27;152780.22;;;15.95;98.99
44926;BME280;30662;51.210;7.656;2023-07-02T10:42:08;152611.19;;;15.27;100.00
44926;BME280;30662;51.210;7.656;2023-07-02T10:44:45;152616.28;;;15.29;100.00
44926;BME280;30662;51.210;7.656;2023-07-02T10:47:11;152620.09;;;15.31;100.00
44926;BME280;30662;51.210;7.656;2023-07-02T10:49:37;152642.94;;;15.40;100.00
44926;BME280;30662;51.210;7.656;2023-07-02T10:52:04;152684.84;;;15.57;100.00
44926;BME280;30662;51.210;7.656;2023-07-02T10:54:44;152791.63;;;15.99;100.00
44926;BME280;30662;51.210;7.656;2023-07-02T10:57:13;152795.47;;;16.01;100.00
44926;BME280;30662;51.210;7.656;2023-07-02T10:59:40;152829.75;;;16.15;100.00
44926;BME280;30662;51.210;7.656;2023-07-02T11:02:08;152912.38;;;16.48;100.00
44926;BME280;30662;51.210;7.656;2023-07-02T11:04:34;152824.69;;;16.13;100.00
44926;BME280;30662;51.210;7.656;2023-07-02T11:07:01;152813.28;;;16.08;100.00
44926;BME280;30662;51.210;7.656;2023-07-02T11:09:27;152795.47;;;16.01;100.00
44926;BME280;30662;51.210;7.656;2023-07-02T11:11:55;152730.66;;;15.75;100.00
44926;BME280;30662;51.210;7.656;2023-07-02T11:14:34;152723.06;;;15.72;100.00
44926;BME280;30662;51.210;7.656;2023-07-02T11:17:05;152677.25;;;15.54;100.00
44926;BME280;30662;51.210;7.656;2023-07-02T11:19:35;152670.91;;;15.51;100.00
44926;BME280;30662;51.210;7.656;2023-07-02T11:22:01;152794.16;;;16.00;100.00
44926;BME280;30662;51.210;7.656;2023-07-02T11:24:34;152888.25;;;16.38;100.00
44926;BME280;30662;51.210;7.656;2023-07-02T11:27:01;153109.53;;;17.27;100.00
44926;BME280;30662;51.210;7.656;2023-07-02T11:29:31;153262.19;;;17.88;92.16
44926;BME280;30662;51.210;7.656;2023-07-02T11:32:10;153160.41;;;17.47;91.89
44926;BME280;30662;51.210;7.656;2023-07-02T11:34:38;153000.16;;;16.83;92.12
44926;BME280;30662;51.210;7.656;2023-07-02T11:37:05;152955.59;;;16.65;92.73
44926;BME280;30662;51.210;7.656;2023-07-02T11:39:31;152857.72;;;16.26;94.55
44926;BME280;30662;51.210;7.656;2023-07-02T11:41:57;152780.22;;;15.95;94.84
44926;BME280;30662;51.210;7.656;2023-07-02T11:44:23;152697.63;;;15.62;97.04
44926;BME280;30662;51.210;7.656;2023-07-02T11:46:50;152689.97;;;15.59;98.52
44926;BME280;30662;51.210;7.656;2023-07-02T11:49:16;152691.22;;;15.59;100.00
44926;BME280;30662;51.210;7.656;2023-07-02T11:51:42;152673.44;;;15.52;100.00
44926;BME280;30662;51.210;7.656;2023-07-02T11:54:14;152640.41;;;15.39;100.00
44926;BME280;30662;51.210;7.656;2023-07-02T11:56:41;152574.34;;;15.12;100.00
44926;BME280;30662;51.210;7.656;2023-07-02T11:59:08;152529.94;;;14.95;100.00
44926;BME280;30662;51.210;7.656;2023-07-02T12:01:34;152527.38;;;14.94;100.00
44926;BME280;30662;51.210;7.656;2023-07-02T12:04:00;152504.50;;;14.84;100.00
44926;BME280;30662;51.210;7.656;2023-07-02T12:06:26;152531.19;;;14.95;100.00
44926;BME280;30662;51.210;7.656;2023-07-02T12:08:52;152583.25;;;15.16;100.00
44926;BME280;30662;51.210;7.656;2023-07-02T12:11:18;152700.16;;;15.63;100.00
44926;BME280;30662;51.210;7.656;2023-07-02T12:13:43;152803.09;;;16.04;100.00
44926;BME280;30662;51.210;7.656;2023-07-02T12:16:09;152884.41;;;16.37;100.00
44926;BME280;30662;51.210;7.656;2023-07-02T12:18:35;152935.25;;;16.57;96.02
44926;BME280;30662;51.210;7.656;2023-07-02T12:21:01;152920.00;;;16.51;95.92
44926;BME280;30662;51.210;7.656;2023-07-02T12:23:27;152880.59;;;16.35;95.24
44926;BME280;30662;51.210;7.656;2023-07-02T12:25:53;152867.91;;;16.30;94.28
44926;BME280;30662;51.210;7.656;2023-07-02T12:28:19;152843.75;;;16.20;93.09
44926;BME280;30662;51.210;7.656;2023-07-02T12:30:44;152828.47;;;16.14;90.91
44926;BME280;30662;51.210;7.656;2023-07-02T12:33:10;152932.72;;;16.56;89.62
44926;BME280;30662;51.210;7.656;2023-07-02T12:35:36;152902.19;;;16.44;88.11
44926;BME280;30662;51.210;7.656;2023-07-02T12:38:02;152777.69;;;15.94;88.25
44926;BME280;30662;51.210;7.656;2023-07-02T12:40:33;152745.91;;;15.81;87.65
44926;BME280;30662;51.210;7.656;2023-07-02T12:42:59;152879.34;;;16.35;83.08
44926;BME280;30662;51.210;7.656;2023-07-02T12:45:25;153073.91;;;17.13;81.50
44926;BME280;30662;51.210;7.656;2023-07-02T12:47:51;153124.78;;;17.33;76.60
44926;BME280;30662;51.210;7.656;2023-07-02T12:50:17;153131.13;;;17.35;78.20